sensor_id;sensor_type;location;lat;lon;timestamp;P1;durP1;ratioP1;P2;durP2;ratioP2
20245;SDS011;10281;54.406;18.556;2023-12-28T00:01:53;17.90;;;7.27;;
20245;SDS011;10281;54.406;18.556;2023-12-28T00:04:20;16.23;;;6.47;;
20245;SDS011;10281;54.406;18.556;2023-12-28T00:06:46;15.27;;;6.80;;
20245;SDS011;10281;54.406;18.556;2023-12-28T00:09:13;15.00;;;6.90;;
20245;SDS011;10281;54.406;18.556;2023-12-28T00:11:40;16.97;;;7.43;;
20245;SDS011;10281;54.406;18.556;2023-12-28T00:14:06;19.33;;;6.83;;
20245;SDS011;10281;54.406;18.556;2023-12-28T00:16:33;13.63;;;6.43;;
20245;SDS011;10281;54.406;18.556;2023-12-28T00:19:01;14.47;;;6.70;;
20245;SDS011;10281;54.406;18.556;2023-12-28T00:21:29;20.13;;;7.33;;
20245;SDS011;10281;54.406;18.556;2023-12-28T00:23:56;15.47;;;6.77;;
20245;SDS011;10281;54.406;18.556;2023-12-28T00:26:23;16.63;;;7.63;;
20245;SDS011;10281;54.406;18.556;2023-12-28T00:28:50;18.07;;;7.13;;
20245;SDS011;10281;54.406;18.556;2023-12-28T00:31:16;16.30;;;7.47;;
20245;SDS011;10281;54.406;18.556;2023-12-28T00:33:43;18.03;;;7.30;;
20245;SDS011;10281;54.406;18.556;2023-12-28T00:36:10;19.70;;;7.70;;
20245;SDS011;10281;54.406;18.556;2023-12-28T00:38:36;16.60;;;7.20;;
20245;SDS011;10281;54.406;18.556;2023-12-28T00:41:03;18.93;;;6.90;;
20245;SDS011;10281;54.406;18.556;2023-12-28T00:43:30;17.83;;;7.73;;
20245;SDS011;10281;54.406;18.556;2023-12-28T00:45:57;18.90;;;7.47;;
20245;SDS011;10281;54.406;18.556;2023-12-28T00:48:24;16.03;;;7.50;;
20245;SDS011;10281;54.406;18.556;2023-12-28T00:50:50;16.67;;;7.07;;
20245;SDS011;10281;54.406;18.556;2023-12-28T00:53:17;19.53;;;8.03;;
20245;SDS011;10281;54.406;18.556;2023-12-28T00:55:44;23.80;;;9.33;;
20245;SDS011;10281;54.406;18.556;2023-12-28T00:58:10;19.57;;;8.37;;
20245;SDS011;10281;54.406;18.556;2023-12-28T01:00:37;16.30;;;9.00;;
20245;SDS011;10281;54.406;18.556;2023-12-28T01:03:03;19.37;;;9.63;;
20245;SDS011;10281;54.406;18.556;2023-12-28T01:05:30;21.67;;;9.20;;
20245;SDS011;10281;54.406;18.556;2023-12-28T01:07:57;20.67;;;9.70;;
20245;SDS011;10281;54.406;18.556;2023-12-28T01:10:23;22.03;;;9.50;;
20245;SDS011;10281;54.406;18.556;2023-12-28T01:12:50;18.13;;;9.83;;
20245;SDS011;10281;54.406;18.556;2023-12-28T01:15:17;19.30;;;9.93;;
20245;SDS011;10281;54.406;18.556;2023-12-28T01:17:45;18.97;;;9.50;;
20245;SDS011;10281;54.406;18.556;2023-12-28T01:20:12;18.10;;;9.73;;
20245;SDS011;10281;54.406;18.556;2023-12-28T01:22:39;27.57;;;10.30;;
20245;SDS011;10281;54.406;18.556;2023-12-28T01:25:06;21.77;;;10.40;;
20245;SDS011;10281;54.406;18.556;2023-12-28T01:27:33;20.00;;;9.93;;
20245;SDS011;10281;54.406;18.556;2023-12-28T01:29:59;21.47;;;10.10;;
20245;SDS011;10281;54.406;18.556;2023-12-28T01:32:26;19.47;;;9.63;;
20245;SDS011;10281;54.406;18.556;2023-12-28T01:34:53;23.50;;;9.67;;
20245;SDS011;10281;54.406;18.556;2023-12-28T01:37:19;18.90;;;9.43;;
20245;SDS011;10281;54.406;18.556;2023-12-28T01:39:46;18.17;;;9.40;;
20245;SDS011;10281;54.406;18.556;2023-12-28T01:42:12;17.70;;;9.40;;
20245;SDS011;10281;54.406;18.556;2023-12-28T01:44:39;20.60;;;10.03;;
20245;SDS011;10281;54.406;18.556;2023-12-28T01:47:05;16.30;;;9.13;;
20245;SDS011;10281;54.406;18.556;2023-12-28T01:49:33;18.67;;;9.13;;
20245;SDS011;10281;54.406;18.556;2023-12-28T01:52:01;18.27;;;8.77;;
20245;SDS011;10281;54.406;18.556;2023-12-28T01:54:29;19.33;;;8.30;;
20245;SDS011;10281;54.406;18.556;2023-12-28T01:56:56;18.47;;;8.37;;
20245;SDS011;10281;54.406;18.556;2023-12-28T01:59:24;16.93;;;8.67;;
20245;SDS011;10281;54.406;18.556;2023-12-28T02:01:51;16.43;;;8.67;;
20245;SDS011;10281;54.406;18.556;2023-12-28T02:04:18;20.20;;;8.87;;
20245;SDS011;10281;54.406;18.556;2023-12-28T02:06:47;19.77;;;8.67;;
20245;SDS011;10281;54.406;18.556;2023-12-28T02:09:14;18.37;;;9.17;;
20245;SDS011;10281;54.406;18.556;2023-12-28T02:11:41;19.20;;;9.67;;
20245;SDS011;10281;54.406;18.556;2023-12-28T02:14:07;23.17;;;12.57;;
20245;SDS011;10281;54.406;18.556;2023-12-28T02:16:36;25.30;;;13.60;;
20245;SDS011;10281;54.406;18.556;2023-12-28T02:19:09;25.93;;;14.50;;
20245;SDS011;10281;54.406;18.556;2023-12-28T02:21:36;25.60;;;14.00;;
20245;SDS011;10281;54.406;18.556;2023-12-28T02:24:03;22.07;;;12.57;;
20245;SDS011;10281;54.406;18.556;2023-12-28T02:26:30;21.77;;;12.40;;
20245;SDS011;10281;54.406;18.556;2023-12-28T02:28:57;19.67;;;10.97;;
20245;SDS011;10281;54.406;18.556;2023-12-28T02:31:26;17.90;;;10.17;;
20245;SDS011;10281;54.406;18.556;2023-12-28T02:33:59;17.27;;;10.70;;
20245;SDS011;10281;54.406;18.556;2023-12-28T02:36:30;23.27;;;12.30;;
20245;SDS011;10281;54.406;18.556;2023-12-28T02:38:59;24.27;;;12.30;;
20245;SDS011;10281;54.406;18.556;2023-12-28T02:41:29;19.07;;;10.83;;
20245;SDS011;10281;54.406;18.556;2023-12-28T02:43:57;21.77;;;12.03;;
20245;SDS011;10281;54.406;18.556;2023-12-28T02:46:24;22.63;;;12.87;;
20245;SDS011;10281;54.406;18.556;2023-12-28T02:48:51;27.23;;;14.03;;
20245;SDS011;10281;54.406;18.556;2023-12-28T02:51:18;22.73;;;12.63;;
20245;SDS011;10281;54.406;18.556;2023-12-28T02:53:45;22.97;;;12.30;;
20245;SDS011;10281;54.406;18.556;2023-12-28T02:56:11;22.30;;;13.10;;
20245;SDS011;10281;54.406;18.556;2023-12-28T02:58:38;22.10;;;12.70;;
20245;SDS011;10281;54.406;18.556;2023-12-28T03:01:04;27.17;;;14.33;;
20245;SDS011;10281;54.406;18.556;2023-12-28T03:03:31;25.40;;;13.57;;
20245;SDS011;10281;54.406;18.556;2023-12-28T03:05:58;24.67;;;13.97;;
20245;SDS011;10281;54.406;18.556;2023-12-28T03:08:24;23.27;;;13.03;;
20245;SDS011;10281;54.406;18.556;2023-12-28T03:10:51;22.50;;;14.20;;
20245;SDS011;10281;54.406;18.556;2023-12-28T03:13:18;24.23;;;14.17;;
20245;SDS011;10281;54.406;18.556;2023-12-28T03:15:45;30.77;;;14.40;;
20245;SDS011;10281;54.406;18.556;2023-12-28T03:18:11;29.47;;;14.57;;
20245;SDS011;10281;54.406;18.556;2023-12-28T03:20:38;28.23;;;14.23;;
20245;SDS011;10281;54.406;18.556;2023-12-28T03:23:05;23.37;;;14.83;;
20245;SDS011;10281;54.406;18.556;2023-12-28T03:25:31;28.50;;;15.10;;
20245;SDS011;10281;54.406;18.556;2023-12-28T03:27:58;25.47;;;13.93;;
20245;SDS011;10281;54.406;18.556;2023-12-28T03:30:24;28.97;;;14.30;;
20245;SDS011;10281;54.406;18.556;2023-12-28T03:32:51;26.03;;;14.83;;
20245;SDS011;10281;54.406;18.556;2023-12-28T03:35:18;26.47;;;14.20;;
20245;SDS011;10281;54.406;18.556;2023-12-28T03:37:44;26.73;;;14.60;;
20245;SDS011;10281;54.406;18.556;2023-12-28T03:40:11;27.23;;;14.10;;
20245;SDS011;10281;54.406;18.556;2023-12-28T03:42:38;25.43;;;14.80;;
20245;SDS011;10281;54.406;18.556;2023-12-28T03:45:05;25.03;;;14.67;;
20245;SDS011;10281;54.406;18.556;2023-12-28T03:47:32;25.33;;;14.23;;
20245;SDS011;10281;54.406;18.556;2023-12-28T03:49:59;26.03;;;14.43;;
20245;SDS011;10281;54.406;18.556;2023-12-28T03:52:26;27.53;;;14.23;;
20245;SDS011;10281;54.406;18.556;2023-12-28T03:54:55;28.83;;;15.30;;
20245;SDS011;10281;54.406;18.556;2023-12-28T03:57:21;27.20;;;15.37;;
20245;SDS011;10281;54.406;18.556;2023-12-28T03:59:48;30.63;;;15.87;;
20245;SDS011;10281;54.406;18.556;2023-12-28T04:02:15;27.13;;;15.17;;
20245;SDS011;10281;54.406;18.556;2023-12-28T04:04:41;24.17;;;14.80;;
20245;SDS011;10281;54.406;18.556;2023-12-28T04:07:08;32.10;;;15.53;;
20245;SDS011;10281;54.406;18.556;2023-12-28T04:09:35;28.03;;;15.20;;
20245;SDS011;10281;54.406;18.556;2023-12-28T04:12:02;27.17;;;14.53;;
20245;SDS011;10281;54.406;18.556;2023-12-28T04:14:29;28.03;;;15.10;;
20245;SDS011;10281;54.406;18.556;2023-12-28T04:16:56;30.27;;;14.57;;
20245;SDS011;10281;54.406;18.556;2023-12-28T04:19:22;26.10;;;14.77;;
20245;SDS011;10281;54.406;18.556;2023-12-28T04:21:49;24.07;;;14.90;;
20245;SDS011;10281;54.406;18.556;2023-12-28T04:24:16;21.70;;;13.57;;
20245;SDS011;10281;54.406;18.556;2023-12-28T04:26:42;25.47;;;14.57;;
20245;SDS011;10281;54.406;18.556;2023-12-28T04:29:09;24.50;;;13.57;;
20245;SDS011;10281;54.406;18.556;2023-12-28T04:31:39;24.70;;;13.50;;
20245;SDS011;10281;54.406;18.556;2023-12-28T04:34:07;26.27;;;14.63;;
20245;SDS011;10281;54.406;18.556;2023-12-28T04:36:39;23.60;;;13.53;;
20245;SDS011;10281;54.406;18.556;2023-12-28T04:39:08;24.73;;;12.30;;
20245;SDS011;10281;54.406;18.556;2023-12-28T04:41:35;26.47;;;12.87;;
20245;SDS011;10281;54.406;18.556;2023-12-28T04:44:01;25.00;;;12.97;;
20245;SDS011;10281;54.406;18.556;2023-12-28T04:46:28;24.90;;;14.03;;
20245;SDS011;10281;54.406;18.556;2023-12-28T04:48:55;21.27;;;11.83;;
20245;SDS011;10281;54.406;18.556;2023-12-28T04:51:22;20.40;;;11.70;;
20245;SDS011;10281;54.406;18.556;2023-12-28T04:53:48;22.57;;;11.87;;
20245;SDS011;10281;54.406;18.556;2023-12-28T04:56:18;22.23;;;11.33;;
20245;SDS011;10281;54.406;18.556;2023-12-28T04:58:45;18.77;;;11.13;;
20245;SDS011;10281;54.406;18.556;2023-12-28T05:01:12;22.03;;;11.47;;
20245;SDS011;10281;54.406;18.556;2023-12-28T05:03:38;19.97;;;11.40;;
20245;SDS011;10281;54.406;18.556;2023-12-28T05:06:05;23.23;;;10.77;;
20245;SDS011;10281;54.406;18.556;2023-12-28T05:08:31;21.33;;;11.67;;
20245;SDS011;10281;54.406;18.556;2023-12-28T05:10:58;21.60;;;10.60;;
20245;SDS011;10281;54.406;18.556;2023-12-28T05:13:25;19.73;;;10.83;;
20245;SDS011;10281;54.406;18.556;2023-12-28T05:15:51;20.17;;;10.83;;
20245;SDS011;10281;54.406;18.556;2023-12-28T05:18:18;19.03;;;9.77;;
20245;SDS011;10281;54.406;18.556;2023-12-28T05:20:44;19.63;;;9.70;;
20245;SDS011;10281;54.406;18.556;2023-12-28T05:23:11;18.07;;;9.37;;
20245;SDS011;10281;54.406;18.556;2023-12-28T05:25:38;19.73;;;9.50;;
20245;SDS011;10281;54.406;18.556;2023-12-28T05:28:04;18.23;;;9.53;;
20245;SDS011;10281;54.406;18.556;2023-12-28T05:30:31;20.10;;;10.00;;
20245;SDS011;10281;54.406;18.556;2023-12-28T05:32:57;22.40;;;10.50;;
20245;SDS011;10281;54.406;18.556;2023-12-28T05:35:24;19.90;;;9.40;;
20245;SDS011;10281;54.406;18.556;2023-12-28T05:37:51;16.07;;;9.50;;
20245;SDS011;10281;54.406;18.556;2023-12-28T05:40:17;19.33;;;9.10;;
20245;SDS011;10281;54.406;18.556;2023-12-28T05:42:44;18.53;;;9.20;;
20245;SDS011;10281;54.406;18.556;2023-12-28T05:45:11;19.43;;;8.97;;
20245;SDS011;10281;54.406;18.556;2023-12-28T05:47:38;17.63;;;8.50;;
20245;SDS011;10281;54.406;18.556;2023-12-28T05:50:04;20.77;;;9.10;;
20245;SDS011;10281;54.406;18.556;2023-12-28T05:52:31;18.27;;;9.10;;
20245;SDS011;10281;54.406;18.556;2023-12-28T05:54:58;14.00;;;8.30;;
20245;SDS011;10281;54.406;18.556;2023-12-28T05:57:25;13.37;;;8.60;;
20245;SDS011;10281;54.406;18.556;2023-12-28T05:59:53;15.03;;;8.73;;
20245;SDS011;10281;54.406;18.556;2023-12-28T06:02:20;16.63;;;9.00;;
20245;SDS011;10281;54.406;18.556;2023-12-28T06:04:47;17.57;;;8.90;;
20245;SDS011;10281;54.406;18.556;2023-12-28T06:07:13;20.10;;;9.87;;
20245;SDS011;10281;54.406;18.556;2023-12-28T06:09:40;17.50;;;9.13;;
20245;SDS011;10281;54.406;18.556;2023-12-28T06:12:06;20.17;;;9.70;;
20245;SDS011;10281;54.406;18.556;2023-12-28T06:14:33;19.17;;;9.40;;
20245;SDS011;10281;54.406;18.556;2023-12-28T06:17:00;21.67;;;9.87;;
20245;SDS011;10281;54.406;18.556;2023-12-28T06:19:26;15.70;;;9.67;;
20245;SDS011;10281;54.406;18.556;2023-12-28T06:21:53;15.07;;;8.93;;
20245;SDS011;10281;54.406;18.556;2023-12-28T06:24:19;18.23;;;9.57;;
20245;SDS011;10281;54.406;18.556;2023-12-28T06:26:46;17.00;;;8.90;;
20245;SDS011;10281;54.406;18.556;2023-12-28T06:29:13;19.10;;;9.50;;
20245;SDS011;10281;54.406;18.556;2023-12-28T06:31:40;13.83;;;9.10;;
20245;SDS011;10281;54.406;18.556;2023-12-28T06:34:07;22.70;;;8.90;;
20245;SDS011;10281;54.406;18.556;2023-12-28T06:36:33;17.00;;;9.97;;
20245;SDS011;10281;54.406;18.556;2023-12-28T06:39:00;17.97;;;9.23;;
20245;SDS011;10281;54.406;18.556;2023-12-28T06:41:27;17.17;;;9.00;;
20245;SDS011;10281;54.406;18.556;2023-12-28T06:43:54;17.57;;;8.80;;
20245;SDS011;10281;54.406;18.556;2023-12-28T06:46:21;20.33;;;9.97;;
20245;SDS011;10281;54.406;18.556;2023-12-28T06:48:48;17.60;;;10.90;;
20245;SDS011;10281;54.406;18.556;2023-12-28T06:51:16;13.43;;;7.93;;
20245;SDS011;10281;54.406;18.556;2023-12-28T06:53:44;20.17;;;8.63;;
20245;SDS011;10281;54.406;18.556;2023-12-28T06:56:12;16.53;;;8.60;;
20245;SDS011;10281;54.406;18.556;2023-12-28T06:58:38;20.57;;;9.87;;
20245;SDS011;10281;54.406;18.556;2023-12-28T07:01:05;21.50;;;10.20;;
20245;SDS011;10281;54.406;18.556;2023-12-28T07:03:32;16.47;;;9.57;;
20245;SDS011;10281;54.406;18.556;2023-12-28T07:05:59;16.63;;;9.80;;
20245;SDS011;10281;54.406;18.556;2023-12-28T07:08:26;19.57;;;9.53;;
20245;SDS011;10281;54.406;18.556;2023-12-28T07:10:52;18.67;;;9.23;;
20245;SDS011;10281;54.406;18.556;2023-12-28T07:13:19;17.60;;;9.17;;
20245;SDS011;10281;54.406;18.556;2023-12-28T07:15:45;17.37;;;8.93;;
20245;SDS011;10281;54.406;18.556;2023-12-28T07:18:12;17.37;;;8.87;;
20245;SDS011;10281;54.406;18.556;2023-12-28T07:20:39;13.83;;;8.33;;
20245;SDS011;10281;54.406;18.556;2023-12-28T07:23:05;15.20;;;8.77;;
20245;SDS011;10281;54.406;18.556;2023-12-28T07:25:32;15.83;;;8.77;;
20245;SDS011;10281;54.406;18.556;2023-12-28T07:27:59;15.67;;;8.83;;
20245;SDS011;10281;54.406;18.556;2023-12-28T07:30:25;14.73;;;8.83;;
20245;SDS011;10281;54.406;18.556;2023-12-28T07:32:52;13.67;;;8.17;;
20245;SDS011;10281;54.406;18.556;2023-12-28T07:35:18;17.87;;;8.60;;
20245;SDS011;10281;54.406;18.556;2023-12-28T07:37:45;18.20;;;9.50;;
20245;SDS011;10281;54.406;18.556;2023-12-28T07:40:12;17.63;;;9.20;;
20245;SDS011;10281;54.406;18.556;2023-12-28T07:42:39;19.87;;;10.03;;
20245;SDS011;10281;54.406;18.556;2023-12-28T07:45:06;17.87;;;9.53;;
20245;SDS011;10281;54.406;18.556;2023-12-28T07:47:33;16.50;;;9.23;;
20245;SDS011;10281;54.406;18.556;2023-12-28T07:49:59;13.40;;;8.53;;
20245;SDS011;10281;54.406;18.556;2023-12-28T07:52:26;16.53;;;9.30;;
20245;SDS011;10281;54.406;18.556;2023-12-28T07:54:53;20.03;;;9.27;;
20245;SDS011;10281;54.406;18.556;2023-12-28T07:57:20;15.87;;;8.70;;
20245;SDS011;10281;54.406;18.556;2023-12-28T07:59:47;17.20;;;9.33;;
20245;SDS011;10281;54.406;18.556;2023-12-28T08:02:13;15.60;;;8.70;;
20245;SDS011;10281;54.406;18.556;2023-12-28T08:04:40;18.27;;;9.17;;
20245;SDS011;10281;54.406;18.556;2023-12-28T08:07:06;14.10;;;9.07;;
20245;SDS011;10281;54.406;18.556;2023-12-28T08:09:34;18.40;;;9.47;;
20245;SDS011;10281;54.406;18.556;2023-12-28T08:12:01;16.20;;;9.07;;
20245;SDS011;10281;54.406;18.556;2023-12-28T08:14:28;17.37;;;9.80;;
20245;SDS011;10281;54.406;18.556;2023-12-28T08:16:55;15.90;;;8.57;;
20245;SDS011;10281;54.406;18.556;2023-12-28T08:19:21;18.37;;;9.57;;
20245;SDS011;10281;54.406;18.556;2023-12-28T08:21:48;15.90;;;8.50;;
20245;SDS011;10281;54.406;18.556;2023-12-28T08:24:14;18.73;;;9.37;;
20245;SDS011;10281;54.406;18.556;2023-12-28T08:26:42;17.13;;;7.93;;
20245;SDS011;10281;54.406;18.556;2023-12-28T08:29:08;15.43;;;9.10;;
20245;SDS011;10281;54.406;18.556;2023-12-28T08:31:35;14.50;;;8.20;;
20245;SDS011;10281;54.406;18.556;2023-12-28T08:34:02;14.50;;;8.23;;
20245;SDS011;10281;54.406;18.556;2023-12-28T08:36:28;18.23;;;8.60;;
20245;SDS011;10281;54.406;18.556;2023-12-28T08:38:55;14.23;;;8.30;;
20245;SDS011;10281;54.406;18.556;2023-12-28T08:41:22;13.97;;;7.70;;
20245;SDS011;10281;54.406;18.556;2023-12-28T08:43:50;15.13;;;8.60;;
20245;SDS011;10281;54.406;18.556;2023-12-28T08:46:17;14.60;;;8.50;;
20245;SDS011;10281;54.406;18.556;2023-12-28T08:48:44;13.13;;;8.43;;
20245;SDS011;10281;54.406;18.556;2023-12-28T08:51:11;11.73;;;7.80;;
20245;SDS011;10281;54.406;18.556;2023-12-28T08:53:40;14.93;;;8.70;;
20245;SDS011;10281;54.406;18.556;2023-12-28T08:56:13;13.73;;;8.70;;
20245;SDS011;10281;54.406;18.556;2023-12-28T08:58:42;16.87;;;8.20;;
20245;SDS011;10281;54.406;18.556;2023-12-28T09:01:15;14.27;;;8.63;;
20245;SDS011;10281;54.406;18.556;2023-12-28T09:03:42;14.50;;;8.20;;
20245;SDS011;10281;54.406;18.556;2023-12-28T09:06:09;12.53;;;8.00;;
20245;SDS011;10281;54.406;18.556;2023-12-28T09:08:35;13.20;;;8.23;;
20245;SDS011;10281;54.406;18.556;2023-12-28T09:11:02;13.00;;;8.17;;
20245;SDS011;10281;54.406;18.556;2023-12-28T09:13:29;14.70;;;8.37;;
20245;SDS011;10281;54.406;18.556;2023-12-28T09:15:56;12.13;;;7.97;;
20245;SDS011;10281;54.406;18.556;2023-12-28T09:18:23;12.73;;;8.23;;
20245;SDS011;10281;54.406;18.556;2023-12-28T09:20:50;11.87;;;7.00;;
20245;SDS011;10281;54.406;18.556;2023-12-28T09:23:16;14.67;;;8.13;;
20245;SDS011;10281;54.406;18.556;2023-12-28T09:25:43;13.80;;;8.30;;
20245;SDS011;10281;54.406;18.556;2023-12-28T09:28:09;11.57;;;7.37;;
20245;SDS011;10281;54.406;18.556;2023-12-28T09:30:36;13.13;;;7.97;;
20245;SDS011;10281;54.406;18.556;2023-12-28T09:33:03;11.37;;;7.77;;
20245;SDS011;10281;54.406;18.556;2023-12-28T09:35:30;14.03;;;8.40;;
20245;SDS011;10281;54.406;18.556;2023-12-28T09:37:57;11.60;;;7.47;;
20245;SDS011;10281;54.406;18.556;2023-12-28T09:40:24;11.30;;;7.63;;
20245;SDS011;10281;54.406;18.556;2023-12-28T09:42:58;14.27;;;7.53;;
20245;SDS011;10281;54.406;18.556;2023-12-28T09:45:37;12.13;;;7.53;;
20245;SDS011;10281;54.406;18.556;2023-12-28T09:48:04;13.33;;;7.60;;
20245;SDS011;10281;54.406;18.556;2023-12-28T09:50:32;14.93;;;8.57;;
20245;SDS011;10281;54.406;18.556;2023-12-28T09:52:59;12.73;;;7.70;;
20245;SDS011;10281;54.406;18.556;2023-12-28T09:55:25;14.03;;;8.17;;
20245;SDS011;10281;54.406;18.556;2023-12-28T09:57:52;10.70;;;8.13;;
20245;SDS011;10281;54.406;18.556;2023-12-28T10:00:20;11.10;;;7.63;;
20245;SDS011;10281;54.406;18.556;2023-12-28T10:02:46;10.33;;;7.03;;
20245;SDS011;10281;54.406;18.556;2023-12-28T10:05:13;12.60;;;7.80;;
20245;SDS011;10281;54.406;18.556;2023-12-28T10:07:41;12.23;;;7.60;;
20245;SDS011;10281;54.406;18.556;2023-12-28T10:10:09;11.40;;;7.87;;
20245;SDS011;10281;54.406;18.556;2023-12-28T10:12:36;10.30;;;7.57;;
20245;SDS011;10281;54.406;18.556;2023-12-28T10:15:04;10.40;;;6.90;;
20245;SDS011;10281;54.406;18.556;2023-12-28T10:17:33;12.60;;;7.33;;
20245;SDS011;10281;54.406;18.556;2023-12-28T10:20:02;10.37;;;7.67;;
20245;SDS011;10281;54.406;18.556;2023-12-28T10:22:32;12.43;;;7.83;;
20245;SDS011;10281;54.406;18.556;2023-12-28T10:24:59;16.67;;;7.40;;
20245;SDS011;10281;54.406;18.556;2023-12-28T10:27:28;12.20;;;6.90;;
20245;SDS011;10281;54.406;18.556;2023-12-28T10:29:55;11.40;;;7.47;;
20245;SDS011;10281;54.406;18.556;2023-12-28T10:32:22;12.27;;;7.60;;
20245;SDS011;10281;54.406;18.556;2023-12-28T10:34:52;12.23;;;7.60;;
20245;SDS011;10281;54.406;18.556;2023-12-28T10:37:20;11.83;;;7.00;;
20245;SDS011;10281;54.406;18.556;2023-12-28T10:39:48;11.10;;;7.20;;
20245;SDS011;10281;54.406;18.556;2023-12-28T10:42:20;11.60;;;7.13;;
20245;SDS011;10281;54.406;18.556;2023-12-28T10:44:52;10.97;;;6.80;;
20245;SDS011;10281;54.406;18.556;2023-12-28T10:47:21;9.40;;;6.63;;
20245;SDS011;10281;54.406;18.556;2023-12-28T10:49:51;13.30;;;7.00;;
20245;SDS011;10281;54.406;18.556;2023-12-28T10:52:21;10.07;;;6.77;;
20245;SDS011;10281;54.406;18.556;2023-12-28T10:57:40;12.00;;;6.60;;
20245;SDS011;10281;54.406;18.556;2023-12-28T11:00:11;8.67;;;6.20;;
20245;SDS011;10281;54.406;18.556;2023-12-28T11:02:44;9.77;;;6.80;;
20245;SDS011;10281;54.406;18.556;2023-12-28T11:05:12;10.83;;;6.23;;
20245;SDS011;10281;54.406;18.556;2023-12-28T11:07:39;9.27;;;6.57;;
20245;SDS011;10281;54.406;18.556;2023-12-28T11:10:09;12.00;;;6.87;;
20245;SDS011;10281;54.406;18.556;2023-12-28T11:12:37;9.47;;;6.27;;
20245;SDS011;10281;54.406;18.556;2023-12-28T11:15:05;8.87;;;6.20;;
20245;SDS011;10281;54.406;18.556;2023-12-28T11:17:33;11.13;;;6.30;;
20245;SDS011;10281;54.406;18.556;2023-12-28T11:20:02;10.03;;;5.50;;
20245;SDS011;10281;54.406;18.556;2023-12-28T11:22:30;8.13;;;5.73;;
20245;SDS011;10281;54.406;18.556;2023-12-28T11:24:58;9.20;;;5.70;;
20245;SDS011;10281;54.406;18.556;2023-12-28T11:27:24;9.93;;;5.73;;
20245;SDS011;10281;54.406;18.556;2023-12-28T11:29:52;11.43;;;5.40;;
20245;SDS011;10281;54.406;18.556;2023-12-28T11:32:19;9.13;;;5.30;;
20245;SDS011;10281;54.406;18.556;2023-12-28T11:34:48;8.00;;;5.37;;
20245;SDS011;10281;54.406;18.556;2023-12-28T11:37:31;7.97;;;5.20;;
20245;SDS011;10281;54.406;18.556;2023-12-28T11:40:08;7.30;;;5.13;;
20245;SDS011;10281;54.406;18.556;2023-12-28T11:42:33;7.20;;;5.07;;
20245;SDS011;10281;54.406;18.556;2023-12-28T11:45:00;11.03;;;5.63;;
20245;SDS011;10281;54.406;18.556;2023-12-28T11:47:27;11.00;;;4.97;;
20245;SDS011;10281;54.406;18.556;2023-12-28T11:49:53;8.80;;;5.83;;
20245;SDS011;10281;54.406;18.556;2023-12-28T11:52:23;7.87;;;5.20;;
20245;SDS011;10281;54.406;18.556;2023-12-28T11:54:52;10.23;;;5.20;;
20245;SDS011;10281;54.406;18.556;2023-12-28T11:57:19;9.43;;;5.50;;
20245;SDS011;10281;54.406;18.556;2023-12-28T11:59:47;9.63;;;5.90;;
20245;SDS011;10281;54.406;18.556;2023-12-28T12:02:16;8.40;;;5.30;;
20245;SDS011;10281;54.406;18.556;2023-12-28T12:04:44;9.33;;;5.23;;
20245;SDS011;10281;54.406;18.556;2023-12-28T12:07:11;7.13;;;4.90;;
20245;SDS011;10281;54.406;18.556;2023-12-28T12:09:37;10.03;;;5.17;;
20245;SDS011;10281;54.406;18.556;2023-12-28T12:12:04;10.33;;;5.83;;
20245;SDS011;10281;54.406;18.556;2023-12-28T12:14:32;8.60;;;5.17;;
20245;SDS011;10281;54.406;18.556;2023-12-28T12:17:01;8.33;;;4.33;;
20245;SDS011;10281;54.406;18.556;2023-12-28T12:19:28;11.00;;;5.20;;
20245;SDS011;10281;54.406;18.556;2023-12-28T12:21:55;8.97;;;5.67;;
20245;SDS011;10281;54.406;18.556;2023-12-28T12:24:22;9.97;;;4.77;;
20245;SDS011;10281;54.406;18.556;2023-12-28T12:26:50;9.00;;;5.43;;
20245;SDS011;10281;54.406;18.556;2023-12-28T12:29:18;9.13;;;4.70;;
20245;SDS011;10281;54.406;18.556;2023-12-28T12:31:46;7.90;;;4.70;;
20245;SDS011;10281;54.406;18.556;2023-12-28T12:34:15;8.60;;;4.90;;
20245;SDS011;10281;54.406;18.556;2023-12-28T12:36:42;8.37;;;4.43;;
20245;SDS011;10281;54.406;18.556;2023-12-28T12:39:10;9.10;;;5.70;;
20245;SDS011;10281;54.406;18.556;2023-12-28T12:41:38;9.00;;;5.30;;
20245;SDS011;10281;54.406;18.556;2023-12-28T12:44:04;7.43;;;5.30;;
20245;SDS011;10281;54.406;18.556;2023-12-28T12:46:31;7.40;;;4.80;;
20245;SDS011;10281;54.406;18.556;2023-12-28T12:48:58;9.50;;;5.00;;
20245;SDS011;10281;54.406;18.556;2023-12-28T12:51:27;5.33;;;3.77;;
20245;SDS011;10281;54.406;18.556;2023-12-28T12:53:56;7.37;;;4.50;;
20245;SDS011;10281;54.406;18.556;2023-12-28T12:56:24;7.13;;;4.43;;
20245;SDS011;10281;54.406;18.556;2023-12-28T12:58:54;8.87;;;4.23;;
20245;SDS011;10281;54.406;18.556;2023-12-28T13:01:21;7.07;;;4.20;;
20245;SDS011;10281;54.406;18.556;2023-12-28T13:03:48;8.73;;;4.70;;
20245;SDS011;10281;54.406;18.556;2023-12-28T13:06:15;9.57;;;5.80;;
20245;SDS011;10281;54.406;18.556;2023-12-28T13:08:42;15.73;;;7.90;;
20245;SDS011;10281;54.406;18.556;2023-12-28T13:11:09;19.00;;;9.90;;
20245;SDS011;10281;54.406;18.556;2023-12-28T13:13:36;10.93;;;5.73;;
20245;SDS011;10281;54.406;18.556;2023-12-28T13:16:03;9.93;;;5.17;;
20245;SDS011;10281;54.406;18.556;2023-12-28T13:18:29;9.60;;;5.90;;
20245;SDS011;10281;54.406;18.556;2023-12-28T13:20:58;13.50;;;7.07;;
20245;SDS011;10281;54.406;18.556;2023-12-28T13:23:24;8.67;;;5.27;;
20245;SDS011;10281;54.406;18.556;2023-12-28T13:25:51;6.83;;;4.40;;
20245;SDS011;10281;54.406;18.556;2023-12-28T13:28:17;9.03;;;5.60;;
20245;SDS011;10281;54.406;18.556;2023-12-28T13:30:44;9.50;;;4.50;;
20245;SDS011;10281;54.406;18.556;2023-12-28T13:33:10;8.73;;;4.17;;
20245;SDS011;10281;54.406;18.556;2023-12-28T13:35:37;4.43;;;3.27;;
20245;SDS011;10281;54.406;18.556;2023-12-28T13:38:04;7.27;;;3.63;;
20245;SDS011;10281;54.406;18.556;2023-12-28T13:40:30;6.27;;;3.73;;
20245;SDS011;10281;54.406;18.556;2023-12-28T13:42:57;4.57;;;3.07;;
20245;SDS011;10281;54.406;18.556;2023-12-28T13:45:23;6.17;;;3.40;;
20245;SDS011;10281;54.406;18.556;2023-12-28T13:47:50;6.97;;;3.73;;
20245;SDS011;10281;54.406;18.556;2023-12-28T13:50:17;8.30;;;3.93;;
20245;SDS011;10281;54.406;18.556;2023-12-28T13:52:45;6.13;;;3.50;;
20245;SDS011;10281;54.406;18.556;2023-12-28T13:55:12;9.87;;;3.73;;
20245;SDS011;10281;54.406;18.556;2023-12-28T13:57:39;6.83;;;3.97;;
20245;SDS011;10281;54.406;18.556;2023-12-28T14:00:06;6.07;;;3.60;;
20245;SDS011;10281;54.406;18.556;2023-12-28T14:02:34;5.37;;;3.43;;
20245;SDS011;10281;54.406;18.556;2023-12-28T14:05:01;8.10;;;3.77;;
20245;SDS011;10281;54.406;18.556;2023-12-28T14:07:28;7.33;;;3.70;;
20245;SDS011;10281;54.406;18.556;2023-12-28T14:09:54;6.57;;;4.10;;
20245;SDS011;10281;54.406;18.556;2023-12-28T14:12:21;5.87;;;3.53;;
20245;SDS011;10281;54.406;18.556;2023-12-28T14:14:48;6.50;;;3.70;;
20245;SDS011;10281;54.406;18.556;2023-12-28T14:17:14;5.40;;;3.30;;
20245;SDS011;10281;54.406;18.556;2023-12-28T14:19:43;7.10;;;3.30;;
20245;SDS011;10281;54.406;18.556;2023-12-28T14:22:10;5.20;;;3.60;;
20245;SDS011;10281;54.406;18.556;2023-12-28T14:24:37;7.10;;;3.47;;